createdAt,value
2018-03-11T00:00:48.250Z,13.73
2018-03-11T00:03:23.561Z,21.70
2018-03-11T00:05:58.657Z,14.20
2018-03-11T00:08:35.092Z,15.13
2018-03-11T00:11:11.630Z,15.23
2018-03-11T00:13:47.391Z,13.73
2018-03-11T00:16:22.555Z,14.27
2018-03-11T00:18:58.727Z,12.27
2018-03-11T00:21:35.147Z,12.20
2018-03-11T00:24:10.526Z,11.10
2018-03-11T00:26:46.416Z,10.40
2018-03-11T00:29:22.010Z,10.37
2018-03-11T00:31:57.370Z,10.83
2018-03-11T00:34:33.829Z,12.63
2018-03-11T00:37:09.604Z,10.47
2018-03-11T00:39:45.953Z,10.73
2018-03-11T00:42:21.607Z,9.50
2018-03-11T00:44:57.464Z,11.20
2018-03-11T00:47:32.638Z,11.00
2018-03-11T00:50:02.984Z,10.50
2018-03-11T00:52:39.146Z,11.40
2018-03-11T00:55:15.020Z,9.80
2018-03-11T00:57:50.016Z,9.43
2018-03-11T01:00:20.712Z,13.57
2018-03-11T01:02:56.238Z,8.43
2018-03-11T01:05:32.674Z,9.83
2018-03-11T01:08:09.255Z,9.77
2018-03-11T01:10:45.279Z,10.30
2018-03-11T01:13:22.360Z,10.30
2018-03-11T01:15:53.466Z,11.20
2018-03-11T01:18:29.226Z,10.67
2018-03-11T01:21:05.056Z,9.83
2018-03-11T01:23:40.402Z,9.73
2018-03-11T01:26:15.920Z,9.83
2018-03-11T01:28:51.236Z,10.10
2018-03-11T01:31:22.332Z,11.93
2018-03-11T01:33:57.072Z,10.57
2018-03-11T01:36:33.638Z,13.37
2018-03-11T01:39:09.016Z,10.70
2018-03-11T01:41:44.198Z,11.17
2018-03-11T01:44:19.086Z,13.40
2018-03-11T01:46:55.676Z,11.80
2018-03-11T01:49:30.950Z,11.47
2018-03-11T01:52:07.034Z,15.23
2018-03-11T01:54:42.068Z,14.73
2018-03-11T01:57:18.464Z,17.53
2018-03-11T01:59:53.662Z,25.60
2018-03-11T02:02:24.790Z,27.77
2018-03-11T02:04:55.913Z,38.60
2018-03-11T02:07:35.674Z,26.03
2018-03-11T02:10:10.746Z,17.03
2018-03-11T02:12:45.976Z,15.87
2018-03-11T02:15:16.439Z,20.43
2018-03-11T02:17:53.132Z,17.43
2018-03-11T02:20:28.610Z,14.40
2018-03-11T02:23:05.220Z,16.90
2018-03-11T02:25:40.372Z,17.90
2018-03-11T02:28:14.894Z,21.97
2018-03-11T02:30:47.277Z,19.00
2018-03-11T02:33:22.530Z,21.73
2018-03-11T02:35:57.674Z,19.30
2018-03-11T02:38:33.476Z,18.80
2018-03-11T02:41:08.864Z,16.40
2018-03-11T02:43:44.980Z,23.33
2018-03-11T02:46:16.040Z,23.77
2018-03-11T02:48:51.358Z,21.63
2018-03-11T02:51:26.658Z,23.30
2018-03-11T02:54:02.026Z,30.17
2018-03-11T02:56:37.328Z,31.27
2018-03-11T02:59:12.754Z,36.60
2018-03-11T03:01:47.692Z,42.43
2018-03-11T03:04:23.358Z,40.97
2018-03-11T03:06:58.956Z,42.53
2018-03-11T03:09:33.965Z,45.50
2018-03-11T03:12:09.448Z,45.40
2018-03-11T03:14:45.106Z,44.53
2018-03-11T03:17:21.057Z,46.83
2018-03-11T03:19:56.761Z,46.33
2018-03-11T03:22:32.118Z,35.83
2018-03-11T03:25:08.714Z,44.07
2018-03-11T03:27:43.935Z,42.33
2018-03-11T03:30:14.300Z,52.17
2018-03-11T03:32:49.290Z,48.47
2018-03-11T03:35:24.186Z,51.97
2018-03-11T03:37:59.688Z,52.23
2018-03-11T03:40:30.836Z,61.33
2018-03-11T03:43:06.104Z,54.20
2018-03-11T03:45:37.063Z,44.73
2018-03-11T03:48:12.778Z,47.43
2018-03-11T03:50:47.796Z,42.90
2018-03-11T03:53:23.148Z,38.20
2018-03-11T03:55:58.471Z,37.90
2018-03-11T03:58:33.908Z,51.07
2018-03-11T04:01:04.906Z,53.70
2018-03-11T04:03:41.017Z,59.70
2018-03-11T04:06:16.422Z,56.93
2018-03-11T04:08:51.844Z,62.37
2018-03-11T04:11:28.226Z,82.20
2018-03-11T04:14:04.231Z,82.90
2018-03-11T04:16:39.925Z,76.30
2018-03-11T04:19:15.962Z,82.83
2018-03-11T04:21:51.188Z,91.50
2018-03-11T04:24:26.108Z,82.60
2018-03-11T04:27:02.130Z,76.60
2018-03-11T04:29:37.873Z,71.37
2018-03-11T04:32:13.574Z,78.83
2018-03-11T04:34:49.208Z,90.97
2018-03-11T04:37:25.095Z,84.53
2018-03-11T04:39:59.967Z,66.73
2018-03-11T04:42:35.603Z,73.23
2018-03-11T04:45:09.583Z,68.07
2018-03-11T04:47:44.974Z,76.97
2018-03-11T04:50:21.530Z,72.53
2018-03-11T04:52:52.581Z,65.53
2018-03-11T04:55:28.768Z,68.57
2018-03-11T04:58:04.145Z,68.87
2018-03-11T05:00:37.426Z,78.97
2018-03-11T05:03:12.582Z,80.27
2018-03-11T05:05:48.238Z,82.07
2018-03-11T05:08:25.435Z,86.50
2018-03-11T05:11:00.343Z,98.97
2018-03-11T05:13:36.708Z,95.73
2018-03-11T05:16:08.532Z,112.60
2018-03-11T05:18:44.184Z,114.80
2018-03-11T05:21:20.004Z,123.97
2018-03-11T05:23:51.135Z,137.33
2018-03-11T05:26:26.338Z,121.00
2018-03-11T05:29:01.716Z,88.97
2018-03-11T05:31:36.766Z,87.43
2018-03-11T05:34:12.801Z,79.80
2018-03-11T05:36:47.827Z,86.97
2018-03-11T05:39:24.041Z,95.30
2018-03-11T05:41:59.338Z,112.93
2018-03-11T05:44:34.624Z,91.10
2018-03-11T05:47:09.400Z,102.40
2018-03-11T05:49:45.294Z,94.80
2018-03-11T05:52:21.032Z,96.03
2018-03-11T05:54:57.831Z,83.83
2018-03-11T05:57:32.924Z,77.07
2018-03-11T06:00:03.860Z,80.57
2018-03-11T06:02:39.470Z,87.87
2018-03-11T06:05:10.448Z,91.53
2018-03-11T06:07:47.788Z,78.77
2018-03-11T06:10:23.062Z,53.43
2018-03-11T06:12:59.815Z,61.37
2018-03-11T06:15:31.162Z,55.67
2018-03-11T06:18:06.169Z,49.83
2018-03-11T06:20:41.599Z,58.97
2018-03-11T06:23:16.993Z,60.83
2018-03-11T06:25:53.312Z,53.20
2018-03-11T06:28:28.662Z,56.70
2018-03-11T06:30:59.818Z,57.47
2018-03-11T06:33:35.351Z,60.07
2018-03-11T06:36:10.031Z,66.87
2018-03-11T06:38:43.208Z,66.83
2018-03-11T06:41:14.557Z,62.27
2018-03-11T06:43:47.002Z,59.23
2018-03-11T06:46:17.933Z,54.23
2018-03-11T06:48:54.095Z,48.53
2018-03-11T06:51:30.900Z,39.70
2018-03-11T06:54:05.584Z,33.33
2018-03-11T06:56:38.671Z,38.40
2018-03-11T06:59:14.478Z,38.07
2018-03-11T07:01:45.344Z,34.90
2018-03-11T07:04:20.487Z,33.77
2018-03-11T07:16:42.550Z,28.43
2018-03-11T07:19:13.680Z,23.77
2018-03-11T07:21:51.373Z,22.47
2018-03-11T07:24:21.716Z,23.27
2018-03-11T07:26:54.674Z,22.63
2018-03-11T07:29:25.451Z,21.07
2018-03-11T07:32:03.918Z,22.00
2018-03-11T07:34:34.336Z,18.67
2018-03-11T07:37:15.203Z,18.97
2018-03-11T07:39:51.762Z,20.20
2018-03-11T07:45:20.395Z,19.43
2018-03-11T07:50:38.699Z,18.60
2018-03-11T07:53:11.052Z,19.30
2018-03-11T07:55:44.044Z,17.83
2018-03-11T07:58:21.529Z,17.00
2018-03-11T08:01:17.210Z,16.33
2018-03-11T08:03:47.636Z,18.10
2018-03-11T08:06:31.783Z,18.23
2018-03-11T08:09:06.365Z,15.90
2018-03-11T08:11:59.049Z,18.63
2018-03-11T08:17:25.716Z,13.93
2018-03-11T08:19:56.858Z,13.63
2018-03-11T08:22:41.291Z,13.27
2018-03-11T08:25:16.824Z,12.30
2018-03-11T08:27:50.060Z,15.07
2018-03-11T08:30:27.180Z,12.27
2018-03-11T08:32:59.212Z,13.07
2018-03-11T08:35:36.433Z,13.60
2018-03-11T08:38:12.292Z,11.70
2018-03-11T08:40:43.933Z,10.57
2018-03-11T08:43:22.015Z,9.70
2018-03-11T08:45:52.619Z,9.87
2018-03-11T08:48:22.997Z,11.93
2018-03-11T08:51:03.787Z,9.23
2018-03-11T08:53:44.477Z,9.73
2018-03-11T08:56:16.560Z,10.20
2018-03-11T08:58:48.173Z,11.43
2018-03-11T09:01:18.584Z,8.57
2018-03-11T09:03:50.903Z,8.23
2018-03-11T09:06:22.056Z,8.23
2018-03-11T09:08:52.715Z,9.83
2018-03-11T09:11:28.405Z,11.70
2018-03-11T09:14:01.053Z,9.87
2018-03-11T09:16:34.991Z,16.33
2018-03-11T09:19:07.295Z,11.93
2018-03-11T09:21:38.540Z,10.03
2018-03-11T09:24:09.886Z,10.70
2018-03-11T09:26:41.020Z,9.87
2018-03-11T09:29:18.004Z,9.20
2018-03-11T09:31:48.438Z,9.50
2018-03-11T09:34:19.576Z,8.73
2018-03-11T09:36:52.444Z,9.33
2018-03-11T09:39:27.151Z,12.03
2018-03-11T09:44:44.245Z,10.17
2018-03-11T09:47:18.106Z,10.13
2018-03-11T09:49:49.570Z,8.97
2018-03-11T09:52:20.741Z,7.23
2018-03-11T09:54:55.977Z,8.37
2018-03-11T09:57:31.407Z,8.83
2018-03-11T10:00:03.348Z,11.03
2018-03-11T10:02:37.990Z,7.10
2018-03-11T10:05:13.055Z,7.20
2018-03-11T10:07:44.168Z,8.00
2018-03-11T10:10:19.252Z,7.97
2018-03-11T10:12:54.112Z,7.67
2018-03-11T10:19:38.608Z,8.07
2018-03-11T10:22:11.776Z,9.43
2018-03-11T10:24:46.022Z,8.77
2018-03-11T10:27:17.338Z,8.90
2018-03-11T10:29:57.684Z,7.23
2018-03-11T10:32:28.804Z,8.33
2018-03-11T10:35:02.774Z,7.40
2018-03-11T10:40:18.906Z,6.00
2018-03-11T10:43:17.570Z,6.00
2018-03-11T10:45:49.391Z,6.20
2018-03-11T10:51:32.497Z,8.23
2018-03-11T10:54:09.420Z,5.27
2018-03-11T10:56:42.859Z,6.27
2018-03-11T10:59:15.412Z,5.90
2018-03-11T11:01:47.293Z,5.63
2018-03-11T11:04:22.016Z,5.00
2018-03-11T11:07:03.562Z,10.97
2018-03-11T11:09:44.437Z,5.63
2018-03-11T11:12:16.261Z,6.27
2018-03-11T11:14:47.866Z,4.87
2018-03-11T11:17:23.314Z,5.90
2018-03-11T11:19:54.354Z,6.00
2018-03-11T11:22:26.466Z,7.33
2018-03-11T11:24:58.367Z,6.90
2018-03-11T11:27:31.097Z,6.53
2018-03-11T11:30:03.448Z,6.87
2018-03-11T11:32:42.600Z,5.57
2018-03-11T11:35:15.256Z,6.20
2018-03-11T11:37:50.450Z,7.73
2018-03-11T11:40:25.004Z,8.90
2018-03-11T11:43:00.484Z,9.60
2018-03-11T11:45:34.052Z,9.77
2018-03-11T11:48:09.681Z,9.70
2018-03-11T11:50:45.132Z,15.17
2018-03-11T11:53:16.728Z,13.83
2018-03-11T11:55:51.751Z,8.83
2018-03-11T11:58:27.028Z,13.53
2018-03-11T12:00:58.006Z,12.63
2018-03-11T12:03:33.862Z,10.17
2018-03-11T12:06:09.296Z,9.47
2018-03-11T12:08:45.291Z,8.70
2018-03-11T12:11:20.172Z,8.23
2018-03-11T12:13:55.184Z,8.67
2018-03-11T12:16:26.226Z,8.47
2018-03-11T12:19:01.722Z,9.97
2018-03-11T12:21:36.525Z,7.70
2018-03-11T12:24:11.632Z,8.50
2018-03-11T12:26:46.786Z,9.50
2018-03-11T12:29:22.116Z,9.20
2018-03-11T12:31:57.278Z,10.03
2018-03-11T12:34:32.282Z,72.67
2018-03-11T12:37:07.322Z,10.40
2018-03-11T12:39:42.544Z,10.93
2018-03-11T12:42:17.658Z,9.60
2018-03-11T12:44:54.379Z,8.67
2018-03-11T12:47:28.903Z,7.53
2018-03-11T12:50:03.878Z,8.10
2018-03-11T12:52:39.160Z,7.40
2018-03-11T12:55:14.762Z,7.17
2018-03-11T12:57:50.798Z,9.80
2018-03-11T13:00:21.812Z,7.03
2018-03-11T13:02:56.532Z,9.67
2018-03-11T13:05:31.747Z,6.83
2018-03-11T13:08:06.639Z,6.67
2018-03-11T13:10:42.876Z,8.30
2018-03-11T13:13:18.854Z,7.17
2018-03-11T13:15:49.867Z,6.37
2018-03-11T13:18:26.060Z,6.23
2018-03-11T13:21:16.026Z,7.30
2018-03-11T13:23:51.137Z,5.33
2018-03-11T13:26:26.309Z,11.53
2018-03-11T13:29:00.631Z,6.67
2018-03-11T13:31:36.802Z,6.17
2018-03-11T13:34:30.175Z,6.10
2018-03-11T13:37:05.359Z,6.47
2018-03-11T13:39:49.387Z,8.10
2018-03-11T13:42:25.235Z,4.23
2018-03-11T13:45:08.601Z,5.77
2018-03-11T13:47:43.465Z,4.77
2018-03-11T13:50:19.267Z,4.03
2018-03-11T13:53:04.252Z,5.37
2018-03-11T13:55:38.651Z,11.93
2018-03-11T14:01:17.867Z,9.13
2018-03-11T14:03:54.063Z,8.40
2018-03-11T14:06:29.083Z,9.33
2018-03-11T14:09:04.079Z,8.57
2018-03-11T14:11:39.831Z,11.97
2018-03-11T14:14:15.240Z,8.13
2018-03-11T14:16:51.076Z,9.27
2018-03-11T14:19:26.622Z,9.53
2018-03-11T14:22:01.510Z,8.83
2018-03-11T14:24:37.866Z,8.23
2018-03-11T14:27:12.578Z,8.10
2018-03-11T14:29:47.643Z,9.57
2018-03-11T14:32:23.368Z,8.67
2018-03-11T14:34:58.377Z,6.70
2018-03-11T14:37:33.326Z,8.70
2018-03-11T14:40:08.903Z,8.60
2018-03-11T14:42:44.478Z,9.07
2018-03-11T14:45:16.479Z,8.40
2018-03-11T14:47:52.256Z,9.17
2018-03-11T14:50:27.612Z,12.43
2018-03-11T14:53:03.151Z,10.67
2018-03-11T14:55:39.394Z,11.07
2018-03-11T14:58:15.242Z,12.93
2018-03-11T15:00:46.253Z,10.60
2018-03-11T15:03:21.335Z,11.20
2018-03-11T15:05:56.629Z,13.23
2018-03-11T15:08:31.438Z,12.03
2018-03-11T15:11:06.448Z,14.97
2018-03-11T15:13:42.434Z,12.83
2018-03-11T15:16:13.604Z,12.30
2018-03-11T15:18:48.208Z,13.43
2018-03-11T15:21:23.304Z,15.23
2018-03-11T15:23:58.368Z,14.17
2018-03-11T15:26:33.309Z,13.57
2018-03-11T15:29:08.338Z,13.03
2018-03-11T15:31:43.402Z,15.03
2018-03-11T15:34:18.198Z,14.23
2018-03-11T15:36:53.444Z,11.97
2018-03-11T15:39:28.145Z,14.03
2018-03-11T15:42:04.072Z,17.47
2018-03-11T15:44:39.086Z,25.87
2018-03-11T15:47:14.196Z,14.07
2018-03-11T15:49:50.249Z,13.13
2018-03-11T15:52:25.328Z,13.57
2018-03-11T15:55:00.286Z,12.77
2018-03-11T15:57:36.449Z,13.47
2018-03-11T16:00:10.804Z,18.27
2018-03-11T16:02:46.235Z,14.90
2018-03-11T16:05:20.778Z,15.53
2018-03-11T16:07:55.969Z,15.63
2018-03-11T16:10:30.681Z,21.27
2018-03-11T16:13:06.914Z,20.77
2018-03-11T16:15:38.082Z,20.07
2018-03-11T16:18:13.813Z,25.10
2018-03-11T16:20:48.739Z,22.77
2018-03-11T16:23:24.122Z,24.67
2018-03-11T16:25:58.842Z,22.23
2018-03-11T16:28:34.180Z,22.93
2018-03-11T16:31:05.322Z,18.70
2018-03-11T16:33:40.319Z,26.03
2018-03-11T16:36:15.168Z,24.40
2018-03-11T16:38:50.166Z,23.70
2018-03-11T16:41:24.856Z,25.53
2018-03-11T16:44:00.137Z,22.60
2018-03-11T16:46:31.212Z,28.97
2018-03-11T16:49:06.398Z,28.03
2018-03-11T16:51:42.076Z,26.07
2018-03-11T16:54:17.139Z,29.03
2018-03-11T16:56:52.220Z,26.37
2018-03-11T16:59:27.362Z,29.10
2018-03-11T17:02:02.152Z,28.47
2018-03-11T17:04:33.176Z,34.60
2018-03-11T17:07:07.894Z,33.63
2018-03-11T17:09:43.124Z,36.47
2018-03-11T17:12:17.969Z,34.93
2018-03-11T17:14:53.600Z,36.43
2018-03-11T17:17:24.531Z,32.30
2018-03-11T17:20:00.322Z,34.67
2018-03-11T17:22:35.314Z,32.17
2018-03-11T17:25:10.405Z,32.47
2018-03-11T17:27:46.317Z,35.20
2018-03-11T17:30:16.450Z,33.67
2018-03-11T17:32:51.032Z,33.40
2018-03-11T17:35:25.994Z,31.23
2018-03-11T17:38:00.964Z,33.10
2018-03-11T17:40:36.942Z,32.57
2018-03-11T17:43:12.513Z,36.20
2018-03-11T17:45:43.295Z,31.00
2018-03-11T17:48:18.406Z,32.93
2018-03-11T17:50:53.074Z,27.17
2018-03-11T17:53:27.962Z,35.80
2018-03-11T17:56:02.855Z,36.10
2018-03-11T17:58:38.461Z,29.80
2018-03-11T18:01:09.597Z,31.67
2018-03-11T18:03:44.382Z,29.13
2018-03-11T18:06:19.394Z,35.47
2018-03-11T18:08:55.279Z,33.10
2018-03-11T18:11:30.239Z,36.13
2018-03-11T18:14:04.822Z,33.83
2018-03-11T18:16:39.861Z,33.60
2018-03-11T18:19:15.796Z,30.80
2018-03-11T18:21:50.558Z,29.73
2018-03-11T18:24:25.496Z,32.73
2018-03-11T18:27:00.655Z,29.30
2018-03-11T18:29:35.680Z,25.90
2018-03-11T18:32:11.077Z,26.47
2018-03-11T18:34:46.002Z,22.90
2018-03-11T18:37:21.056Z,26.03
2018-03-11T18:39:56.545Z,26.00
2018-03-11T18:42:31.392Z,26.17
2018-03-11T18:45:06.741Z,23.87
2018-03-11T18:47:42.717Z,25.40
2018-03-11T18:50:17.570Z,27.63
2018-03-11T18:52:52.686Z,24.70
2018-03-11T18:55:28.123Z,24.80
2018-03-11T18:58:02.737Z,24.63
2018-03-11T19:00:33.814Z,21.30
2018-03-11T19:03:09.938Z,20.50
2018-03-11T19:05:44.906Z,26.37
2018-03-11T19:08:19.942Z,23.43
2018-03-11T19:10:54.534Z,24.87
2018-03-11T19:13:30.472Z,21.00
2018-03-11T19:16:01.549Z,22.27
2018-03-11T19:18:37.589Z,27.40
2018-03-11T19:21:13.671Z,21.77
2018-03-11T19:23:48.734Z,20.80
2018-03-11T19:26:23.447Z,20.40
2018-03-11T19:28:58.348Z,19.73
2018-03-11T19:31:33.913Z,23.17
2018-03-11T19:34:08.905Z,19.63
2018-03-11T19:36:43.658Z,20.90
2018-03-11T19:39:19.962Z,16.93
2018-03-11T19:41:55.418Z,18.60
2018-03-11T19:44:30.661Z,18.50
2018-03-11T19:47:06.003Z,18.47
2018-03-11T19:49:40.944Z,16.83
2018-03-11T19:52:16.058Z,17.93
2018-03-11T19:54:51.248Z,16.13
2018-03-11T19:57:26.743Z,15.93
2018-03-11T20:00:01.935Z,14.97
2018-03-11T20:02:37.507Z,15.63
2018-03-11T20:05:12.688Z,13.90
2018-03-11T20:07:47.602Z,13.90
2018-03-11T20:10:23.069Z,14.23
2018-03-11T20:12:57.871Z,15.17
2018-03-11T20:15:33.005Z,14.63
2018-03-11T20:18:07.907Z,16.83
2018-03-11T20:20:42.733Z,16.30
2018-03-11T20:23:17.529Z,15.87
2018-03-11T20:25:52.852Z,14.50
2018-03-11T20:28:27.540Z,14.30
2018-03-11T20:31:02.132Z,14.73
2018-03-11T20:33:37.715Z,15.27
2018-03-11T20:36:12.405Z,18.30
2018-03-11T20:38:47.103Z,15.20
2018-03-11T20:41:22.347Z,22.27
2018-03-11T20:43:57.066Z,18.90
2018-03-11T20:46:32.502Z,26.80
2018-03-11T20:49:07.133Z,29.90
2018-03-11T20:51:43.196Z,34.63
2018-03-11T20:54:17.961Z,43.30
2018-03-11T20:56:52.674Z,27.80
2018-03-11T20:59:27.343Z,23.33
2018-03-11T21:02:03.244Z,19.40
2018-03-11T21:04:38.521Z,19.67
2018-03-11T21:07:13.596Z,17.13
2018-03-11T21:09:48.609Z,16.03
2018-03-11T21:12:22.622Z,16.80
2018-03-11T21:14:57.301Z,17.90
2018-03-11T21:17:32.978Z,19.63
2018-03-11T21:20:07.493Z,14.70
2018-03-11T21:22:42.343Z,21.67
2018-03-11T21:25:16.965Z,15.70
2018-03-11T21:27:51.959Z,15.37
2018-03-11T21:30:36.246Z,16.17
2018-03-11T21:33:11.502Z,16.77
2018-03-11T21:35:46.024Z,16.87
2018-03-11T21:38:20.847Z,16.83
2018-03-11T21:40:55.860Z,16.17
2018-03-11T21:43:31.481Z,16.03
2018-03-11T21:46:02.451Z,15.70
2018-03-11T21:48:38.482Z,16.17
2018-03-11T21:51:13.800Z,16.40
2018-03-11T21:53:49.025Z,15.80
2018-03-11T21:56:23.799Z,17.30
2018-03-11T21:58:58.387Z,16.87
2018-03-11T22:01:33.223Z,17.23
2018-03-11T22:04:08.482Z,17.30
2018-03-11T22:06:43.346Z,19.90
2018-03-11T22:09:18.406Z,19.10
2018-03-11T22:11:53.126Z,17.77
2018-03-11T22:14:27.975Z,16.90
2018-03-11T22:17:02.495Z,18.30
2018-03-11T22:19:37.433Z,18.10
2018-03-11T22:22:11.979Z,18.80
2018-03-11T22:24:46.847Z,19.70
2018-03-11T22:27:21.548Z,17.70
2018-03-11T22:29:56.615Z,18.23
2018-03-11T22:32:31.408Z,17.40
2018-03-11T22:35:06.588Z,18.07
2018-03-11T22:37:41.468Z,17.17
2018-03-11T22:40:16.602Z,21.63
2018-03-11T22:42:51.383Z,17.03
2018-03-11T22:45:22.398Z,19.63
2018-03-11T22:47:57.751Z,18.23
2018-03-11T22:50:32.737Z,20.23
2018-03-11T22:53:07.410Z,20.13
2018-03-11T22:55:42.410Z,18.13
2018-03-11T22:58:17.077Z,19.40
2018-03-11T23:00:47.687Z,20.43
2018-03-11T23:03:22.148Z,18.93
2018-03-11T23:05:57.361Z,18.63
2018-03-11T23:08:32.007Z,18.07
2018-03-11T23:11:06.244Z,18.47
